sensor_id;sensor_type;location;lat;lon;timestamp;temperature;humidity
20594;DHT22;10455;48.732;10.266;2024-02-21T00:00:31;5.00;99.90
20594;DHT22;10455;48.732;10.266;2024-02-21T00:05:33;4.90;99.90
20594;DHT22;10455;48.732;10.266;2024-02-21T00:10:36;4.90;99.90
20594;DHT22;10455;48.732;10.266;2024-02-21T00:15:38;5.00;99.90
20594;DHT22;10455;48.732;10.266;2024-02-21T00:20:40;4.90;99.90
20594;DHT22;10455;48.732;10.266;2024-02-21T00:25:44;4.90;99.90
20594;DHT22;10455;48.732;10.266;2024-02-21T00:30:46;4.90;99.90
20594;DHT22;10455;48.732;10.266;2024-02-21T00:35:49;4.80;99.90
20594;DHT22;10455;48.732;10.266;2024-02-21T00:40:52;4.70;99.90
20594;DHT22;10455;48.732;10.266;2024-02-21T00:45:54;4.60;99.90
20594;DHT22;10455;48.732;10.266;2024-02-21T00:50:57;4.60;99.90
20594;DHT22;10455;48.732;10.266;2024-02-21T00:56:00;4.70;99.90
20594;DHT22;10455;48.732;10.266;2024-02-21T01:01:02;4.60;99.90
20594;DHT22;10455;48.732;10.266;2024-02-21T01:06:04;4.70;99.90
20594;DHT22;10455;48.732;10.266;2024-02-21T01:11:08;4.80;99.90
20594;DHT22;10455;48.732;10.266;2024-02-21T01:16:10;4.80;99.90
20594;DHT22;10455;48.732;10.266;2024-02-21T01:21:12;5.00;99.90
20594;DHT22;10455;48.732;10.266;2024-02-21T01:26:15;4.90;99.90
20594;DHT22;10455;48.732;10.266;2024-02-21T01:31:18;4.90;99.90
20594;DHT22;10455;48.732;10.266;2024-02-21T01:36:20;4.90;99.90
20594;DHT22;10455;48.732;10.266;2024-02-21T01:41:24;5.00;99.90
20594;DHT22;10455;48.732;10.266;2024-02-21T01:46:26;4.90;99.90
20594;DHT22;10455;48.732;10.266;2024-02-21T01:51:29;4.80;99.90
20594;DHT22;10455;48.732;10.266;2024-02-21T01:56:33;4.80;99.90
20594;DHT22;10455;48.732;10.266;2024-02-21T02:01:35;4.70;99.90
20594;DHT22;10455;48.732;10.266;2024-02-21T02:06:37;4.80;99.90
20594;DHT22;10455;48.732;10.266;2024-02-21T02:11:42;4.80;99.90
20594;DHT22;10455;48.732;10.266;2024-02-21T02:16:46;4.80;99.90
20594;DHT22;10455;48.732;10.266;2024-02-21T02:21:51;4.70;99.90
20594;DHT22;10455;48.732;10.266;2024-02-21T02:26:58;4.70;99.90
20594;DHT22;10455;48.732;10.266;2024-02-21T02:32:00;4.70;99.90
20594;DHT22;10455;48.732;10.266;2024-02-21T02:37:02;4.80;99.90
20594;DHT22;10455;48.732;10.266;2024-02-21T02:42:05;4.70;99.90
20594;DHT22;10455;48.732;10.266;2024-02-21T02:47:08;4.70;99.90
20594;DHT22;10455;48.732;10.266;2024-02-21T02:52:10;4.70;99.90
20594;DHT22;10455;48.732;10.266;2024-02-21T02:57:14;4.80;99.90
20594;DHT22;10455;48.732;10.266;2024-02-21T03:02:16;4.90;99.90
20594;DHT22;10455;48.732;10.266;2024-02-21T03:07:18;5.00;99.90
20594;DHT22;10455;48.732;10.266;2024-02-21T03:12:21;4.90;99.90
20594;DHT22;10455;48.732;10.266;2024-02-21T03:17:28;5.00;99.90
20594;DHT22;10455;48.732;10.266;2024-02-21T03:22:30;5.10;99.90
20594;DHT22;10455;48.732;10.266;2024-02-21T03:27:33;5.00;99.90
20594;DHT22;10455;48.732;10.266;2024-02-21T03:32:35;5.00;99.90
20594;DHT22;10455;48.732;10.266;2024-02-21T03:37:38;4.90;99.90
20594;DHT22;10455;48.732;10.266;2024-02-21T03:42:42;4.90;99.90
20594;DHT22;10455;48.732;10.266;2024-02-21T03:47:44;4.90;99.90
20594;DHT22;10455;48.732;10.266;2024-02-21T03:52:46;4.90;99.90
20594;DHT22;10455;48.732;10.266;2024-02-21T03:57:49;4.90;99.90
20594;DHT22;10455;48.732;10.266;2024-02-21T04:02:51;4.90;99.90
20594;DHT22;10455;48.732;10.266;2024-02-21T04:07:53;5.00;99.90
20594;DHT22;10455;48.732;10.266;2024-02-21T04:12:57;5.20;99.90
20594;DHT22;10455;48.732;10.266;2024-02-21T04:17:59;5.30;99.90
20594;DHT22;10455;48.732;10.266;2024-02-21T04:23:00;5.20;99.90
20594;DHT22;10455;48.732;10.266;2024-02-21T04:28:05;5.20;99.90
20594;DHT22;10455;48.732;10.266;2024-02-21T04:33:07;5.20;99.90
20594;DHT22;10455;48.732;10.266;2024-02-21T04:38:09;5.00;99.90
20594;DHT22;10455;48.732;10.266;2024-02-21T04:43:12;4.90;99.90
20594;DHT22;10455;48.732;10.266;2024-02-21T04:48:14;4.90;99.90
20594;DHT22;10455;48.732;10.266;2024-02-21T04:53:16;4.90;99.90
20594;DHT22;10455;48.732;10.266;2024-02-21T04:58:19;4.80;99.90
20594;DHT22;10455;48.732;10.266;2024-02-21T05:03:21;4.50;99.90
20594;DHT22;10455;48.732;10.266;2024-02-21T05:08:23;4.50;99.90
20594;DHT22;10455;48.732;10.266;2024-02-21T05:13:26;4.50;99.90
20594;DHT22;10455;48.732;10.266;2024-02-21T05:18:28;4.50;99.90
20594;DHT22;10455;48.732;10.266;2024-02-21T05:23:30;4.50;99.90
20594;DHT22;10455;48.732;10.266;2024-02-21T05:28:33;4.20;99.90
20594;DHT22;10455;48.732;10.266;2024-02-21T05:33:35;3.90;99.90
20594;DHT22;10455;48.732;10.266;2024-02-21T05:38:37;3.70;99.90
20594;DHT22;10455;48.732;10.266;2024-02-21T05:43:40;3.40;99.90
20594;DHT22;10455;48.732;10.266;2024-02-21T05:48:42;3.30;99.90
20594;DHT22;10455;48.732;10.266;2024-02-21T05:53:44;3.10;99.90
20594;DHT22;10455;48.732;10.266;2024-02-21T05:58:48;3.10;99.90
20594;DHT22;10455;48.732;10.266;2024-02-21T06:03:50;3.00;99.90
20594;DHT22;10455;48.732;10.266;2024-02-21T06:08:52;3.00;99.90
20594;DHT22;10455;48.732;10.266;2024-02-21T06:13:56;3.00;99.90
20594;DHT22;10455;48.732;10.266;2024-02-21T06:18:58;3.10;99.90
20594;DHT22;10455;48.732;10.266;2024-02-21T06:24:00;3.10;99.90
20594;DHT22;10455;48.732;10.266;2024-02-21T06:29:03;2.90;99.90
20594;DHT22;10455;48.732;10.266;2024-02-21T06:34:05;2.90;99.90
20594;DHT22;10455;48.732;10.266;2024-02-21T06:39:07;3.00;99.90
20594;DHT22;10455;48.732;10.266;2024-02-21T06:44:10;3.10;99.90
20594;DHT22;10455;48.732;10.266;2024-02-21T06:49:12;3.30;99.90
20594;DHT22;10455;48.732;10.266;2024-02-21T06:54:16;3.40;99.90
20594;DHT22;10455;48.732;10.266;2024-02-21T06:59:19;3.60;99.90
20594;DHT22;10455;48.732;10.266;2024-02-21T07:04:21;3.90;99.90
20594;DHT22;10455;48.732;10.266;2024-02-21T07:09:23;5.30;99.90
20594;DHT22;10455;48.732;10.266;2024-02-21T07:14:28;7.50;99.90
20594;DHT22;10455;48.732;10.266;2024-02-21T07:19:30;6.20;99.90
20594;DHT22;10455;48.732;10.266;2024-02-21T07:24:31;4.80;99.90
20594;DHT22;10455;48.732;10.266;2024-02-21T07:29:35;4.60;99.90
20594;DHT22;10455;48.732;10.266;2024-02-21T07:34:36;4.60;99.90
20594;DHT22;10455;48.732;10.266;2024-02-21T07:39:39;4.90;99.90
20594;DHT22;10455;48.732;10.266;2024-02-21T07:44:42;5.40;99.90
20594;DHT22;10455;48.732;10.266;2024-02-21T07:49:44;5.80;99.90
20594;DHT22;10455;48.732;10.266;2024-02-21T07:54:46;5.90;99.90
20594;DHT22;10455;48.732;10.266;2024-02-21T07:59:50;5.90;99.90
20594;DHT22;10455;48.732;10.266;2024-02-21T08:04:51;6.10;99.90
20594;DHT22;10455;48.732;10.266;2024-02-21T08:09:53;6.40;99.90
20594;DHT22;10455;48.732;10.266;2024-02-21T08:14:56;6.90;99.90
20594;DHT22;10455;48.732;10.266;2024-02-21T08:19:58;6.90;99.90
20594;DHT22;10455;48.732;10.266;2024-02-21T08:25:00;7.20;99.90
20594;DHT22;10455;48.732;10.266;2024-02-21T08:30:04;7.50;99.90
20594;DHT22;10455;48.732;10.266;2024-02-21T08:35:08;8.00;99.90
20594;DHT22;10455;48.732;10.266;2024-02-21T08:40:11;8.60;99.90
20594;DHT22;10455;48.732;10.266;2024-02-21T08:45:14;9.30;99.90
20594;DHT22;10455;48.732;10.266;2024-02-21T08:50:16;10.20;99.90
20594;DHT22;10455;48.732;10.266;2024-02-21T08:55:18;10.60;99.90
20594;DHT22;10455;48.732;10.266;2024-02-21T09:00:21;10.90;99.90
20594;DHT22;10455;48.732;10.266;2024-02-21T09:05:27;11.40;99.90
20594;DHT22;10455;48.732;10.266;2024-02-21T09:10:29;12.80;99.90
20594;DHT22;10455;48.732;10.266;2024-02-21T09:15:33;13.30;99.90
20594;DHT22;10455;48.732;10.266;2024-02-21T09:20:35;12.60;99.90
20594;DHT22;10455;48.732;10.266;2024-02-21T09:25:37;13.30;99.90
20594;DHT22;10455;48.732;10.266;2024-02-21T09:30:40;13.30;99.90
20594;DHT22;10455;48.732;10.266;2024-02-21T09:35:42;12.40;99.90
20594;DHT22;10455;48.732;10.266;2024-02-21T09:40:44;12.70;99.90
20594;DHT22;10455;48.732;10.266;2024-02-21T09:45:47;12.50;99.90
20594;DHT22;10455;48.732;10.266;2024-02-21T09:50:50;12.50;99.90
20594;DHT22;10455;48.732;10.266;2024-02-21T09:55:53;12.90;99.90
20594;DHT22;10455;48.732;10.266;2024-02-21T10:00:56;12.50;99.90
20594;DHT22;10455;48.732;10.266;2024-02-21T10:06:00;13.00;99.90
20594;DHT22;10455;48.732;10.266;2024-02-21T10:11:03;13.00;99.90
20594;DHT22;10455;48.732;10.266;2024-02-21T10:16:07;12.60;99.90
20594;DHT22;10455;48.732;10.266;2024-02-21T10:21:09;13.30;99.90
20594;DHT22;10455;48.732;10.266;2024-02-21T10:26:11;13.10;99.90
20594;DHT22;10455;48.732;10.266;2024-02-21T10:31:23;13.50;99.90
20594;DHT22;10455;48.732;10.266;2024-02-21T10:36:26;13.80;99.90
20594;DHT22;10455;48.732;10.266;2024-02-21T10:41:28;13.60;99.90
20594;DHT22;10455;48.732;10.266;2024-02-21T10:46:33;13.30;99.90
20594;DHT22;10455;48.732;10.266;2024-02-21T10:51:42;13.80;99.90
20594;DHT22;10455;48.732;10.266;2024-02-21T10:56:45;13.90;99.90
20594;DHT22;10455;48.732;10.266;2024-02-21T11:01:48;13.90;99.90
20594;DHT22;10455;48.732;10.266;2024-02-21T11:06:51;14.50;99.90
20594;DHT22;10455;48.732;10.266;2024-02-21T11:11:53;15.20;99.90
20594;DHT22;10455;48.732;10.266;2024-02-21T11:16:56;15.20;99.90
20594;DHT22;10455;48.732;10.266;2024-02-21T11:21:58;15.20;99.90
20594;DHT22;10455;48.732;10.266;2024-02-21T11:27:09;14.20;99.90
20594;DHT22;10455;48.732;10.266;2024-02-21T11:32:14;15.30;99.90
20594;DHT22;10455;48.732;10.266;2024-02-21T11:37:17;15.00;99.90
20594;DHT22;10455;48.732;10.266;2024-02-21T11:42:18;15.40;99.90
20594;DHT22;10455;48.732;10.266;2024-02-21T11:47:22;15.00;99.90
20594;DHT22;10455;48.732;10.266;2024-02-21T11:52:25;15.70;99.90
20594;DHT22;10455;48.732;10.266;2024-02-21T11:57:27;15.30;99.90
20594;DHT22;10455;48.732;10.266;2024-02-21T12:02:31;14.40;99.90
20594;DHT22;10455;48.732;10.266;2024-02-21T12:07:33;14.30;99.90
20594;DHT22;10455;48.732;10.266;2024-02-21T12:12:36;13.80;99.90
20594;DHT22;10455;48.732;10.266;2024-02-21T12:17:40;14.10;99.90
20594;DHT22;10455;48.732;10.266;2024-02-21T12:22:42;13.10;99.90
20594;DHT22;10455;48.732;10.266;2024-02-21T12:27:44;13.20;99.90
20594;DHT22;10455;48.732;10.266;2024-02-21T12:32:47;13.70;99.90
20594;DHT22;10455;48.732;10.266;2024-02-21T12:37:50;13.70;99.90
20594;DHT22;10455;48.732;10.266;2024-02-21T12:42:51;13.20;99.90
20594;DHT22;10455;48.732;10.266;2024-02-21T12:47:55;13.50;99.90
20594;DHT22;10455;48.732;10.266;2024-02-21T12:52:57;13.80;99.90
20594;DHT22;10455;48.732;10.266;2024-02-21T12:58:03;13.30;99.90
20594;DHT22;10455;48.732;10.266;2024-02-21T13:03:07;13.60;99.90
20594;DHT22;10455;48.732;10.266;2024-02-21T13:08:10;13.80;99.90
20594;DHT22;10455;48.732;10.266;2024-02-21T13:13:12;14.10;99.90
20594;DHT22;10455;48.732;10.266;2024-02-21T13:18:15;14.40;99.90
20594;DHT22;10455;48.732;10.266;2024-02-21T13:23:17;14.80;99.90
20594;DHT22;10455;48.732;10.266;2024-02-21T13:28:21;14.70;99.90
20594;DHT22;10455;48.732;10.266;2024-02-21T13:33:25;13.90;99.90
20594;DHT22;10455;48.732;10.266;2024-02-21T13:38:27;13.90;99.90
20594;DHT22;10455;48.732;10.266;2024-02-21T13:43:28;14.70;99.90
20594;DHT22;10455;48.732;10.266;2024-02-21T13:48:32;14.70;99.90
20594;DHT22;10455;48.732;10.266;2024-02-21T13:53:34;14.70;99.90
20594;DHT22;10455;48.732;10.266;2024-02-21T13:58:36;14.60;99.90
20594;DHT22;10455;48.732;10.266;2024-02-21T14:03:40;13.90;99.90
20594;DHT22;10455;48.732;10.266;2024-02-21T14:08:42;12.80;99.90
20594;DHT22;10455;48.732;10.266;2024-02-21T14:13:43;13.00;99.90
20594;DHT22;10455;48.732;10.266;2024-02-21T14:18:47;13.00;99.90
20594;DHT22;10455;48.732;10.266;2024-02-21T14:23:49;13.10;99.90
20594;DHT22;10455;48.732;10.266;2024-02-21T14:28:52;12.90;99.90
20594;DHT22;10455;48.732;10.266;2024-02-21T14:33:55;12.70;99.90
20594;DHT22;10455;48.732;10.266;2024-02-21T14:38:57;12.50;99.90
20594;DHT22;10455;48.732;10.266;2024-02-21T14:43:59;12.50;99.90
20594;DHT22;10455;48.732;10.266;2024-02-21T14:49:03;12.40;99.90
20594;DHT22;10455;48.732;10.266;2024-02-21T14:54:05;12.30;99.90
20594;DHT22;10455;48.732;10.266;2024-02-21T14:59:07;12.30;99.90
20594;DHT22;10455;48.732;10.266;2024-02-21T15:04:10;12.20;99.90
20594;DHT22;10455;48.732;10.266;2024-02-21T15:09:12;12.10;99.90
20594;DHT22;10455;48.732;10.266;2024-02-21T15:14:14;12.20;99.90
20594;DHT22;10455;48.732;10.266;2024-02-21T15:19:17;12.20;99.90
20594;DHT22;10455;48.732;10.266;2024-02-21T15:24:19;12.10;99.90
20594;DHT22;10455;48.732;10.266;2024-02-21T15:29:21;11.70;99.90
20594;DHT22;10455;48.732;10.266;2024-02-21T15:34:25;11.60;99.90
20594;DHT22;10455;48.732;10.266;2024-02-21T15:39:27;11.60;99.90
20594;DHT22;10455;48.732;10.266;2024-02-21T15:44:29;11.40;99.90
20594;DHT22;10455;48.732;10.266;2024-02-21T15:49:32;11.20;99.90
20594;DHT22;10455;48.732;10.266;2024-02-21T15:54:34;11.10;99.90
20594;DHT22;10455;48.732;10.266;2024-02-21T15:59:37;10.80;99.90
20594;DHT22;10455;48.732;10.266;2024-02-21T16:04:41;10.90;99.90
20594;DHT22;10455;48.732;10.266;2024-02-21T16:09:43;10.80;99.90
20594;DHT22;10455;48.732;10.266;2024-02-21T16:14:46;10.70;99.90
20594;DHT22;10455;48.732;10.266;2024-02-21T16:19:50;10.60;99.90
20594;DHT22;10455;48.732;10.266;2024-02-21T16:24:52;10.20;99.90
20594;DHT22;10455;48.732;10.266;2024-02-21T16:29:54;10.10;99.90
20594;DHT22;10455;48.732;10.266;2024-02-21T16:34:58;9.80;99.90
20594;DHT22;10455;48.732;10.266;2024-02-21T16:40:00;9.60;99.90
20594;DHT22;10455;48.732;10.266;2024-02-21T16:45:02;9.50;99.90
20594;DHT22;10455;48.732;10.266;2024-02-21T16:50:08;9.30;99.90
20594;DHT22;10455;48.732;10.266;2024-02-21T16:55:10;9.10;99.90
20594;DHT22;10455;48.732;10.266;2024-02-21T17:00:12;9.00;99.90
20594;DHT22;10455;48.732;10.266;2024-02-21T17:05:16;8.90;99.90
20594;DHT22;10455;48.732;10.266;2024-02-21T17:10:19;8.90;99.90
20594;DHT22;10455;48.732;10.266;2024-02-21T17:15:21;8.90;99.90
20594;DHT22;10455;48.732;10.266;2024-02-21T17:20:24;8.80;99.90
20594;DHT22;10455;48.732;10.266;2024-02-21T17:25:26;8.80;99.90
20594;DHT22;10455;48.732;10.266;2024-02-21T17:30:27;8.80;99.90
20594;DHT22;10455;48.732;10.266;2024-02-21T17:35:31;8.80;99.90
20594;DHT22;10455;48.732;10.266;2024-02-21T17:40:35;8.80;99.90
20594;DHT22;10455;48.732;10.266;2024-02-21T17:45:37;8.70;99.90
20594;DHT22;10455;48.732;10.266;2024-02-21T17:50:41;8.70;99.90
20594;DHT22;10455;48.732;10.266;2024-02-21T17:55:43;8.70;99.90
20594;DHT22;10455;48.732;10.266;2024-02-21T18:00:45;8.60;99.90
20594;DHT22;10455;48.732;10.266;2024-02-21T18:05:49;8.70;99.90
20594;DHT22;10455;48.732;10.266;2024-02-21T18:10:52;8.70;99.90
20594;DHT22;10455;48.732;10.266;2024-02-21T18:15:54;8.70;99.90
20594;DHT22;10455;48.732;10.266;2024-02-21T18:20:57;8.70;99.90
20594;DHT22;10455;48.732;10.266;2024-02-21T18:25:59;8.60;99.90
20594;DHT22;10455;48.732;10.266;2024-02-21T18:31:01;8.50;99.90
20594;DHT22;10455;48.732;10.266;2024-02-21T18:36:06;8.40;99.90
20594;DHT22;10455;48.732;10.266;2024-02-21T18:41:07;8.30;99.90
20594;DHT22;10455;48.732;10.266;2024-02-21T18:46:09;8.20;99.90
20594;DHT22;10455;48.732;10.266;2024-02-21T18:51:13;8.20;99.90
20594;DHT22;10455;48.732;10.266;2024-02-21T18:56:15;8.40;99.90
20594;DHT22;10455;48.732;10.266;2024-02-21T19:01:17;8.40;99.90
20594;DHT22;10455;48.732;10.266;2024-02-21T19:06:22;8.40;99.90
20594;DHT22;10455;48.732;10.266;2024-02-21T19:11:24;8.30;99.90
20594;DHT22;10455;48.732;10.266;2024-02-21T19:16:26;8.40;99.90
20594;DHT22;10455;48.732;10.266;2024-02-21T19:21:30;8.30;99.90
20594;DHT22;10455;48.732;10.266;2024-02-21T19:26:32;8.30;99.90
20594;DHT22;10455;48.732;10.266;2024-02-21T19:31:34;8.20;99.90
20594;DHT22;10455;48.732;10.266;2024-02-21T19:36:37;8.20;99.90
20594;DHT22;10455;48.732;10.266;2024-02-21T19:41:39;8.30;99.90
20594;DHT22;10455;48.732;10.266;2024-02-21T19:46:41;8.30;99.90
20594;DHT22;10455;48.732;10.266;2024-02-21T19:51:45;8.30;99.90
20594;DHT22;10455;48.732;10.266;2024-02-21T19:56:47;8.30;99.90
20594;DHT22;10455;48.732;10.266;2024-02-21T20:01:49;8.40;99.90
20594;DHT22;10455;48.732;10.266;2024-02-21T20:06:54;8.50;99.90
20594;DHT22;10455;48.732;10.266;2024-02-21T20:11:56;8.40;99.90
20594;DHT22;10455;48.732;10.266;2024-02-21T20:16:59;8.50;99.90
20594;DHT22;10455;48.732;10.266;2024-02-21T20:22:02;8.50;99.90
20594;DHT22;10455;48.732;10.266;2024-02-21T20:27:04;8.40;99.90
20594;DHT22;10455;48.732;10.266;2024-02-21T20:32:06;8.50;99.90
20594;DHT22;10455;48.732;10.266;2024-02-21T20:37:09;8.60;99.90
20594;DHT22;10455;48.732;10.266;2024-02-21T20:42:12;8.70;99.90
20594;DHT22;10455;48.732;10.266;2024-02-21T20:47:14;8.60;99.90
20594;DHT22;10455;48.732;10.266;2024-02-21T20:52:17;8.70;99.90
20594;DHT22;10455;48.732;10.266;2024-02-21T20:57:19;8.70;99.90
20594;DHT22;10455;48.732;10.266;2024-02-21T21:02:21;8.70;99.90
20594;DHT22;10455;48.732;10.266;2024-02-21T21:07:25;8.80;99.90
20594;DHT22;10455;48.732;10.266;2024-02-21T21:12:29;8.80;99.90
20594;DHT22;10455;48.732;10.266;2024-02-21T21:17:31;8.80;99.90
20594;DHT22;10455;48.732;10.266;2024-02-21T21:22:34;8.90;99.90
20594;DHT22;10455;48.732;10.266;2024-02-21T21:27:36;8.90;99.90
20594;DHT22;10455;48.732;10.266;2024-02-21T21:32:38;8.90;99.90
20594;DHT22;10455;48.732;10.266;2024-02-21T21:37:42;8.90;99.90
20594;DHT22;10455;48.732;10.266;2024-02-21T21:42:44;8.90;99.90
20594;DHT22;10455;48.732;10.266;2024-02-21T21:47:46;8.90;99.90
20594;DHT22;10455;48.732;10.266;2024-02-21T21:52:49;8.80;99.90
20594;DHT22;10455;48.732;10.266;2024-02-21T21:57:51;8.90;99.90
20594;DHT22;10455;48.732;10.266;2024-02-21T22:02:53;8.60;99.90
20594;DHT22;10455;48.732;10.266;2024-02-21T22:07:56;8.70;99.90
20594;DHT22;10455;48.732;10.266;2024-02-21T22:12:59;8.70;99.90
20594;DHT22;10455;48.732;10.266;2024-02-21T22:18:01;8.50;99.90
20594;DHT22;10455;48.732;10.266;2024-02-21T22:23:05;8.70;99.90
20594;DHT22;10455;48.732;10.266;2024-02-21T22:28:07;8.90;99.90
20594;DHT22;10455;48.732;10.266;2024-02-21T22:33:09;9.10;99.90
20594;DHT22;10455;48.732;10.266;2024-02-21T22:38:12;9.60;99.90
20594;DHT22;10455;48.732;10.266;2024-02-21T22:43:14;9.80;99.90
20594;DHT22;10455;48.732;10.266;2024-02-21T22:48:17;9.70;99.90
20594;DHT22;10455;48.732;10.266;2024-02-21T22:53:21;10.10;99.90
20594;DHT22;10455;48.732;10.266;2024-02-21T22:58:23;10.20;99.90
20594;DHT22;10455;48.732;10.266;2024-02-21T23:03:25;10.50;99.90
20594;DHT22;10455;48.732;10.266;2024-02-21T23:08:29;10.50;99.90
20594;DHT22;10455;48.732;10.266;2024-02-21T23:13:35;10.30;99.90
20594;DHT22;10455;48.732;10.266;2024-02-21T23:18:53;9.90;99.90
20594;DHT22;10455;48.732;10.266;2024-02-21T23:23:57;9.40;99.90
20594;DHT22;10455;48.732;10.266;2024-02-21T23:28:58;9.30;99.90
20594;DHT22;10455;48.732;10.266;2024-02-21T23:34:00;9.60;99.90
20594;DHT22;10455;48.732;10.266;2024-02-21T23:39:04;9.80;99.90
20594;DHT22;10455;48.732;10.266;2024-02-21T23:44:06;10.00;99.90
20594;DHT22;10455;48.732;10.266;2024-02-21T23:49:08;10.00;99.90
20594;DHT22;10455;48.732;10.266;2024-02-21T23:54:12;10.10;99.90
20594;DHT22;10455;48.732;10.266;2024-02-21T23:59:14;10.20;99.90
